Leoma, TN (38468)

10:00 PM CDT die 28o August, anno 2015 (GMT -0500)
WLX Radio Studios | | Change Station
CLOSE
Current Station
Personal Weather Stations
Location: Lawrenceburg, TN
Elevation: 932 ft
Nearby Weather Stations

Elev 932 ft 35.25 °N, 87.33 °W | Updated 21 minutes ago

Serena
Serena
74.1 °F
Feels Like 75 °F
N
0.0
Ventus Variabilis Ventus from Eurus
Gusts 0.0 mph

Hodie
High -- | Low -- °F
--% Chance of Precip.
Yesterday
High -- | Low -- °F
Precip. -- in
6:18 AM 7:21 PM
Waxing Gibbous, 99% visible
Pressio 30.10 in
Visibilitas 10.0 milia passuum
Clouds Serena
Index Caloris 75 °F
Frigus in quo Ros apparet 66 °F
Umor 77%
Rainfall 0.00 in
Snow Depth Not available.
UV 0 out of 12
Pollen 9.30 out of 12
Air Quality Not available.
Flu Activity Not available.
METAR KMRC 290255Z AUTO 00000KT 10SM CLR 22/22 A3010 RMK
Pressio 30.10 in
Visibilitas 10.0 milia passuum
Clouds Serena
Index Caloris 75 °F
Frigus in quo Ros apparet 66 °F
Umor 77%
Rainfall 0.00 in
Snow Depth Not available.
UV 0 out of 12
Pollen 9.30 out of 12
Air Quality Not available.
Flu Activity Not available.
METAR KMRC 290255Z AUTO 00000KT 10SM CLR 22/22 A3010 RMK

10-Day Weather Forecast

×

Almanac

Astronomy

Aug. 28, 2015 Rise Set
Actual Time
Civil Twilight
Nautical Twilight
Astronomical Twilight
Moon
Length Of Visible Light
Length of Day
Tomorrow will be .
, % of the Moon is Illuminated

Today's Extremes

State Highs State Lows

Community

WunderPhotos

Upload Photos

1,850,593 photos uploaded!

WunderBlogs® & News

Nearby

Air Quality

  Air Quality AQ Index Pollutant
Not available.

Snow Depth

Station Depth Elevation

Earthquake Activity

City Distance Mag. Time & Date
Minimum magnitude displayed is 2.5.

Coastal Water Temperatures

Locus Calor

Stations

Nearby Weather Stations

Station Location Temp Frigus Venti Frigus in quo Ros apparet Umor Ventus Precip. Elev Renovata Type